createdAt,value
2023-04-11T00:00:08.692Z,54.55
2023-04-11T00:01:08.674Z,54.65
2023-04-11T00:02:08.711Z,60.41
2023-04-11T00:03:08.796Z,54.74
2023-04-11T00:04:08.761Z,53.78
2023-04-11T00:05:08.706Z,55.79
2023-04-11T00:06:08.646Z,53.50
2023-04-11T00:07:08.622Z,55.84
2023-04-11T00:08:08.577Z,53.85
2023-04-11T00:09:08.593Z,48.67
2023-04-11T00:10:08.597Z,45.65
2023-04-11T00:11:08.606Z,47.54
2023-04-11T00:12:08.624Z,52.16
2023-04-11T00:13:08.568Z,59.45
2023-04-11T00:14:08.595Z,50.93
2023-04-11T00:15:08.597Z,44.48
2023-04-11T00:16:08.661Z,56.31
2023-04-11T00:17:08.496Z,48.28
2023-04-11T00:18:08.542Z,45.83
2023-04-11T00:19:08.474Z,46.66
2023-04-11T00:20:08.472Z,66.40
2023-04-11T00:21:08.490Z,53.78
2023-04-11T00:22:08.478Z,46.44
2023-04-11T00:23:08.447Z,54.28
2023-04-11T00:24:08.443Z,46.89
2023-04-11T00:25:08.433Z,52.51
2023-04-11T00:26:08.420Z,49.11
2023-04-11T00:27:08.409Z,50.07
2023-04-11T00:28:08.409Z,52.72
2023-04-11T00:29:08.402Z,52.64
2023-04-11T00:30:08.393Z,56.05
2023-04-11T00:31:08.347Z,51.97
2023-04-11T00:32:08.569Z,49.59
2023-04-11T00:33:08.376Z,48.48
2023-04-11T00:34:08.343Z,52.00
2023-04-11T00:35:08.464Z,52.17
2023-04-11T00:36:08.421Z,56.49
2023-04-11T00:37:08.312Z,51.45
2023-04-11T00:38:08.298Z,48.80
2023-04-11T00:39:08.306Z,47.74
2023-04-11T00:40:08.310Z,47.91
2023-04-11T00:41:08.279Z,61.46
2023-04-11T00:42:08.263Z,64.70
2023-04-11T00:43:08.265Z,46.53
2023-04-11T00:44:08.217Z,43.39
2023-04-11T00:45:08.225Z,45.87
2023-04-11T00:46:08.269Z,63.61
2023-04-11T00:47:08.215Z,50.81
2023-04-11T00:48:08.308Z,43.50
2023-04-11T00:49:08.185Z,48.75
2023-04-11T00:50:08.174Z,51.22
2023-04-11T00:51:08.155Z,54.50
2023-04-11T00:52:08.187Z,53.67
2023-04-11T00:53:08.151Z,46.15
2023-04-11T00:54:08.142Z,54.35
2023-04-11T00:55:08.152Z,55.38
2023-04-11T00:56:08.121Z,45.61
2023-04-11T00:57:08.147Z,45.24
2023-04-11T00:58:08.154Z,45.47
2023-04-11T00:59:08.094Z,48.22
2023-04-11T01:00:08.085Z,52.99
2023-04-11T01:01:08.091Z,51.36
2023-04-11T01:02:08.132Z,45.55
2023-04-11T01:03:08.171Z,48.50
2023-04-11T01:04:08.123Z,44.40
2023-04-11T01:05:08.081Z,47.56
2023-04-11T01:06:08.001Z,47.78
2023-04-11T01:07:08.033Z,43.70
2023-04-11T01:08:08.006Z,45.44
2023-04-11T01:09:07.970Z,47.81
2023-04-11T01:10:07.994Z,44.41
2023-04-11T01:11:07.964Z,44.57
2023-04-11T01:12:07.939Z,47.72
2023-04-11T01:13:07.957Z,65.54
2023-04-11T01:14:07.940Z,45.51
2023-04-11T01:15:07.956Z,47.10
2023-04-11T01:16:07.933Z,48.46
2023-04-11T01:17:08.186Z,45.99
2023-04-11T01:18:07.958Z,47.16
2023-04-11T01:19:07.963Z,43.53
2023-04-11T01:20:07.904Z,44.31
2023-04-11T01:21:07.906Z,52.84
2023-04-11T01:22:07.877Z,53.36
2023-04-11T01:23:07.855Z,47.02
2023-04-11T01:24:07.860Z,52.70
2023-04-11T01:25:07.837Z,54.29
2023-04-11T01:26:07.885Z,45.37
2023-04-11T01:27:07.814Z,45.07
2023-04-11T01:28:07.820Z,42.78
2023-04-11T01:29:07.802Z,43.14
2023-04-11T01:30:07.782Z,44.48
2023-04-11T01:31:07.877Z,47.38
2023-04-11T01:32:07.812Z,51.82
2023-04-11T01:33:07.876Z,42.73
2023-04-11T01:34:07.782Z,42.56
2023-04-11T01:35:07.750Z,43.13
2023-04-11T01:36:07.828Z,42.60
2023-04-11T01:37:07.729Z,46.36
2023-04-11T01:38:07.713Z,62.36
2023-04-11T01:39:07.727Z,46.13
2023-04-11T01:40:07.758Z,48.17
2023-04-11T01:41:07.687Z,42.48
2023-04-11T01:42:07.652Z,43.29
2023-04-11T01:43:07.677Z,44.52
2023-04-11T01:44:07.637Z,45.35
2023-04-11T01:45:08.673Z,53.42
2023-04-11T01:46:07.635Z,47.63
2023-04-11T01:47:07.661Z,46.80
2023-04-11T01:48:07.787Z,45.27
2023-04-11T01:49:07.672Z,52.20
2023-04-11T01:50:07.619Z,60.92
2023-04-11T01:51:07.568Z,44.93
2023-04-11T01:52:07.569Z,49.70
2023-04-11T01:53:07.575Z,58.82
2023-04-11T01:54:07.535Z,44.46
2023-04-11T01:55:07.578Z,49.90
2023-04-11T01:56:07.524Z,50.72
2023-04-11T01:57:07.522Z,52.46
2023-04-11T01:58:07.535Z,50.98
2023-04-11T01:59:07.518Z,52.71
2023-04-11T02:00:07.521Z,62.98
2023-04-11T02:01:07.529Z,52.03
2023-04-11T02:02:07.561Z,57.29
2023-04-11T02:03:07.634Z,58.28
2023-04-11T02:04:07.614Z,52.10
2023-04-11T02:05:07.452Z,48.87
2023-04-11T02:06:07.400Z,52.78
2023-04-11T02:07:07.399Z,49.56
2023-04-11T02:08:07.416Z,52.13
2023-04-11T02:09:07.451Z,53.50
2023-04-11T02:10:07.456Z,55.17
2023-04-11T02:11:07.390Z,49.27
2023-04-11T02:12:07.445Z,54.06
2023-04-11T02:13:07.401Z,49.70
2023-04-11T02:14:07.352Z,47.60
2023-04-11T02:15:07.361Z,50.31
2023-04-11T02:16:07.414Z,62.73
2023-04-11T02:17:07.323Z,52.90
2023-04-11T02:18:07.337Z,56.12
2023-04-11T02:19:07.288Z,60.66
2023-04-11T02:20:07.328Z,48.04
2023-04-11T02:21:07.284Z,46.92
2023-04-11T02:22:07.297Z,54.96
2023-04-11T02:23:07.275Z,48.52
2023-04-11T02:24:07.249Z,51.93
2023-04-11T02:25:07.271Z,50.71
2023-04-11T02:26:07.262Z,47.89
2023-04-11T02:27:07.229Z,62.12
2023-04-11T02:28:08.230Z,51.78
2023-04-11T02:29:08.225Z,52.53
2023-04-11T02:30:07.211Z,51.71
2023-04-11T02:31:07.350Z,51.80
2023-04-11T02:32:18.369Z,52.37
2023-04-11T02:33:07.223Z,49.26
2023-04-11T02:34:07.176Z,46.27
2023-04-11T02:35:07.173Z,52.30
2023-04-11T02:36:07.236Z,51.65
2023-04-11T02:37:07.128Z,50.08
2023-04-11T02:38:07.115Z,48.79
2023-04-11T02:39:07.149Z,48.57
2023-04-11T02:40:07.109Z,51.87
2023-04-11T02:41:07.117Z,51.64
2023-04-11T02:42:07.064Z,54.94
2023-04-11T02:43:07.097Z,49.07
2023-04-11T02:44:07.095Z,51.80
2023-04-11T02:45:07.081Z,57.91
2023-04-11T02:46:12.583Z,58.12
2023-04-11T02:47:09.173Z,55.15
2023-04-11T02:48:07.035Z,52.24
2023-04-11T02:49:07.039Z,46.14
2023-04-11T02:50:07.077Z,62.12
2023-04-11T02:51:07.005Z,54.18
2023-04-11T02:52:06.981Z,55.89
2023-04-11T02:53:06.977Z,53.99
2023-04-11T02:54:06.972Z,51.38
2023-04-11T02:55:06.992Z,56.13
2023-04-11T02:56:07.002Z,53.24
2023-04-11T02:57:06.954Z,53.30
2023-04-11T02:58:06.951Z,55.66
2023-04-11T02:59:07.073Z,50.91
2023-04-11T03:00:06.920Z,53.18
2023-04-11T03:01:06.888Z,56.30
2023-04-11T03:02:06.990Z,56.45
2023-04-11T03:03:07.030Z,55.14
2023-04-11T03:04:06.915Z,55.31
2023-04-11T03:05:06.879Z,53.24
2023-04-11T03:06:06.838Z,53.14
2023-04-11T03:07:06.907Z,56.79
2023-04-11T03:08:06.851Z,53.44
2023-04-11T03:09:06.825Z,54.07
2023-04-11T03:10:06.838Z,57.00
2023-04-11T03:11:06.799Z,62.53
2023-04-11T03:12:06.805Z,66.04
2023-04-11T03:13:06.812Z,54.63
2023-04-11T03:14:06.798Z,51.19
2023-04-11T03:15:06.781Z,60.34
2023-04-11T03:16:06.856Z,62.21
2023-04-11T03:17:06.755Z,52.18
2023-04-11T03:18:06.746Z,53.91
2023-04-11T03:19:06.735Z,55.16
2023-04-11T03:20:06.713Z,53.98
2023-04-11T03:21:06.701Z,54.11
2023-04-11T03:22:06.699Z,55.84
2023-04-11T03:23:06.698Z,56.63
2023-04-11T03:24:06.708Z,51.89
2023-04-11T03:25:06.685Z,56.59
2023-04-11T03:26:06.674Z,56.59
2023-04-11T03:27:06.647Z,53.91
2023-04-11T03:28:06.638Z,55.22
2023-04-11T03:29:06.637Z,54.66
2023-04-11T03:30:06.659Z,59.53
2023-04-11T03:31:06.612Z,57.21
2023-04-11T03:32:06.602Z,54.29
2023-04-11T03:33:06.659Z,58.39
2023-04-11T03:34:06.585Z,58.07
2023-04-11T03:35:06.588Z,57.52
2023-04-11T03:36:06.590Z,59.69
2023-04-11T03:37:06.567Z,54.97
2023-04-11T03:38:06.587Z,64.97
2023-04-11T03:39:06.535Z,56.63
2023-04-11T03:40:06.540Z,57.63
2023-04-11T03:41:06.560Z,57.85
2023-04-11T03:42:06.518Z,56.01
2023-04-11T03:43:06.504Z,58.06
2023-04-11T03:44:06.495Z,55.83
2023-04-11T03:45:06.472Z,57.06
2023-04-11T03:46:06.612Z,58.22
2023-04-11T03:47:07.429Z,58.40
2023-04-11T03:48:06.457Z,57.36
2023-04-11T03:49:06.440Z,58.67
2023-04-11T03:50:06.429Z,58.43
2023-04-11T03:51:06.433Z,58.86
2023-04-11T03:52:06.406Z,59.53
2023-04-11T03:53:06.381Z,60.92
2023-04-11T03:54:06.396Z,60.75
2023-04-11T03:55:06.404Z,63.32
2023-04-11T03:56:06.358Z,59.31
2023-04-11T03:57:06.355Z,59.95
2023-04-11T03:58:06.362Z,59.79
2023-04-11T03:59:06.363Z,58.92
2023-04-11T04:00:06.329Z,58.86
2023-04-11T04:01:06.319Z,57.66
2023-04-11T04:02:06.348Z,58.27
2023-04-11T04:03:06.469Z,58.50
2023-04-11T04:04:06.446Z,57.68
2023-04-11T04:05:06.352Z,58.80
2023-04-11T04:06:06.301Z,57.94
2023-04-11T04:07:06.268Z,58.01
2023-04-11T04:08:06.251Z,58.84
2023-04-11T04:09:06.254Z,59.59
2023-04-11T04:10:06.228Z,59.20
2023-04-11T04:11:06.231Z,58.17
2023-04-11T04:12:06.198Z,57.50
2023-04-11T04:13:06.217Z,59.21
2023-04-11T04:14:06.242Z,57.47
2023-04-11T04:15:06.216Z,58.89
2023-04-11T04:16:06.284Z,59.96
2023-04-11T04:17:06.178Z,59.80
2023-04-11T04:18:06.197Z,58.24
2023-04-11T04:19:06.171Z,58.85
2023-04-11T04:20:06.160Z,67.44
2023-04-11T04:21:06.121Z,59.02
2023-04-11T04:22:06.125Z,61.05
2023-04-11T04:23:06.102Z,58.55
2023-04-11T04:24:06.083Z,65.71
2023-04-11T04:25:06.168Z,60.01
2023-04-11T04:26:06.089Z,56.56
2023-04-11T04:27:06.094Z,57.38
2023-04-11T04:28:06.084Z,58.49
2023-04-11T04:29:06.069Z,57.51
2023-04-11T04:30:06.078Z,57.00
2023-04-11T04:31:06.026Z,58.94
2023-04-11T04:32:06.150Z,59.47
2023-04-11T04:33:06.114Z,57.83
2023-04-11T04:34:06.055Z,57.03
2023-04-11T04:35:06.020Z,63.85
2023-04-11T04:36:06.017Z,58.13
2023-04-11T04:37:05.969Z,60.91
2023-04-11T04:38:06.015Z,57.44
2023-04-11T04:39:05.973Z,57.84
2023-04-11T04:40:05.976Z,58.31
2023-04-11T04:41:06.004Z,60.32
2023-04-11T04:42:05.911Z,58.52
2023-04-11T04:43:05.946Z,59.11
2023-04-11T04:44:05.961Z,58.80
2023-04-11T04:45:05.969Z,59.45
2023-04-11T04:46:05.914Z,58.14
2023-04-11T04:47:05.905Z,58.55
2023-04-11T04:48:05.944Z,63.97
2023-04-11T04:49:05.866Z,60.69
2023-04-11T04:50:05.948Z,60.26
2023-04-11T04:51:05.844Z,58.35
2023-04-11T04:52:05.830Z,59.64
2023-04-11T04:53:05.829Z,59.95
2023-04-11T04:54:05.794Z,56.81
2023-04-11T04:55:05.791Z,58.21
2023-04-11T04:56:05.845Z,59.73
2023-04-11T04:57:05.806Z,58.73
2023-04-11T04:58:05.755Z,62.41
2023-04-11T04:59:05.746Z,61.09
2023-04-11T05:00:05.833Z,56.58
2023-04-11T05:01:05.865Z,57.54
2023-04-11T05:02:05.884Z,59.37
2023-04-11T05:03:05.995Z,59.60
2023-04-11T05:04:05.842Z,59.38
2023-04-11T05:05:05.724Z,59.51
2023-04-11T05:06:05.723Z,58.45
2023-04-11T05:07:05.687Z,59.70
2023-04-11T05:08:05.703Z,60.07
2023-04-11T05:09:05.649Z,58.58
2023-04-11T05:10:05.680Z,59.76
2023-04-11T05:11:05.650Z,58.49
2023-04-11T05:12:07.137Z,60.06
2023-04-11T05:13:06.691Z,60.61
2023-04-11T05:14:05.685Z,59.64
2023-04-11T05:15:05.611Z,59.67
2023-04-11T05:16:05.607Z,59.52
2023-04-11T05:17:05.673Z,58.72
2023-04-11T05:18:05.617Z,58.33
2023-04-11T05:19:05.578Z,61.88
2023-04-11T05:20:05.600Z,58.71
2023-04-11T05:21:05.534Z,61.27
2023-04-11T05:22:05.507Z,61.33
2023-04-11T05:23:05.550Z,60.44
2023-04-11T05:24:05.545Z,59.67
2023-04-11T05:25:05.495Z,59.40
2023-04-11T05:26:05.515Z,60.08
2023-04-11T05:27:06.502Z,58.99
2023-04-11T05:28:05.624Z,58.54
2023-04-11T05:29:05.491Z,59.30
2023-04-11T05:30:05.471Z,63.29
2023-04-11T05:31:05.510Z,66.72
2023-04-11T05:32:05.460Z,61.82
2023-04-11T05:33:05.459Z,61.40
2023-04-11T05:34:05.423Z,60.87
2023-04-11T05:35:05.409Z,58.30
2023-04-11T05:36:05.425Z,58.90
2023-04-11T05:37:05.402Z,60.27
2023-04-11T05:38:05.471Z,58.79
2023-04-11T05:39:05.396Z,59.50
2023-04-11T05:40:05.363Z,60.83
2023-04-11T05:41:05.348Z,56.62
2023-04-11T05:42:06.787Z,57.99
2023-04-11T05:43:05.388Z,57.09
2023-04-11T05:44:05.317Z,58.43
2023-04-11T05:45:05.344Z,64.04
2023-04-11T05:46:05.325Z,61.38
2023-04-11T05:47:05.328Z,59.26
2023-04-11T05:48:06.301Z,60.76
2023-04-11T05:49:05.330Z,58.96
2023-04-11T05:50:05.313Z,59.68
2023-04-11T05:51:05.283Z,58.79
2023-04-11T05:52:05.285Z,58.58
2023-04-11T05:53:05.272Z,57.72
2023-04-11T05:54:05.229Z,57.36
2023-04-11T05:55:05.258Z,59.26
2023-04-11T05:56:05.238Z,56.52
2023-04-11T05:57:05.211Z,60.51
2023-04-11T05:58:05.205Z,61.87
2023-04-11T05:59:05.216Z,61.63
2023-04-11T06:00:05.185Z,62.60
2023-04-11T06:01:05.149Z,62.71
2023-04-11T06:02:05.214Z,61.52
2023-04-11T06:03:05.165Z,61.13
2023-04-11T06:04:05.252Z,60.36
2023-04-11T06:05:05.151Z,59.98
2023-04-11T06:06:05.104Z,59.10
2023-04-11T06:07:05.174Z,56.21
2023-04-11T06:08:05.097Z,58.98
2023-04-11T06:09:05.093Z,60.91
2023-04-11T06:10:05.114Z,61.97
2023-04-11T06:11:05.091Z,60.55
2023-04-11T06:12:05.078Z,60.39
2023-04-11T06:13:05.058Z,60.59
2023-04-11T06:14:05.012Z,59.93
2023-04-11T06:15:05.012Z,60.14
2023-04-11T06:16:05.065Z,59.27
2023-04-11T06:17:04.995Z,57.93
2023-04-11T06:18:05.001Z,58.50
2023-04-11T06:19:05.965Z,59.63
2023-04-11T06:20:06.143Z,61.88
2023-04-11T06:21:04.953Z,59.52
2023-04-11T06:22:04.955Z,58.25
2023-04-11T06:23:04.936Z,55.34
2023-04-11T06:24:04.941Z,58.82
2023-04-11T06:25:04.944Z,59.91
2023-04-11T06:26:04.946Z,54.64
2023-04-11T06:27:04.876Z,53.64
2023-04-11T06:28:04.904Z,55.18
2023-04-11T06:29:04.908Z,57.08
2023-04-11T06:30:04.876Z,56.47
2023-04-11T06:31:04.911Z,59.70
2023-04-11T06:32:04.960Z,58.77
2023-04-11T06:33:04.921Z,60.54
2023-04-11T06:34:04.870Z,58.16
2023-04-11T06:35:04.840Z,58.18
2023-04-11T06:36:06.088Z,58.64
2023-04-11T06:37:04.847Z,57.96
2023-04-11T06:38:04.793Z,55.46
2023-04-11T06:39:04.812Z,54.85
2023-04-11T06:40:04.800Z,58.32
2023-04-11T06:41:04.816Z,57.99
2023-04-11T06:42:04.807Z,58.29
2023-04-11T06:43:04.764Z,58.13
2023-04-11T06:44:04.768Z,59.29
2023-04-11T06:45:04.725Z,57.49
2023-04-11T06:46:04.752Z,58.01
2023-04-11T06:47:04.734Z,56.55
2023-04-11T06:48:04.766Z,56.48
2023-04-11T06:49:04.762Z,59.59
2023-04-11T06:50:04.688Z,59.30
2023-04-11T06:51:04.706Z,57.82
2023-04-11T06:52:04.664Z,58.40
2023-04-11T06:53:04.690Z,60.06
2023-04-11T06:54:04.655Z,56.11
2023-04-11T06:55:04.666Z,56.56
2023-04-11T06:56:04.604Z,57.68
2023-04-11T06:57:04.599Z,58.46
2023-04-11T06:58:04.643Z,55.25
2023-04-11T06:59:04.626Z,54.66
2023-04-11T07:00:04.633Z,54.17
2023-04-11T07:01:04.573Z,51.99
2023-04-11T07:02:04.631Z,54.24
2023-04-11T07:03:04.698Z,54.10
2023-04-11T07:04:04.723Z,53.17
2023-04-11T07:05:04.514Z,54.04
2023-04-11T07:06:04.521Z,50.53
2023-04-11T07:07:04.523Z,53.77
2023-04-11T07:08:05.509Z,55.50
2023-04-11T07:09:04.542Z,53.86
2023-04-11T07:10:04.498Z,53.20
2023-04-11T07:11:04.465Z,54.50
2023-04-11T07:12:04.599Z,54.82
2023-04-11T07:13:04.503Z,55.77
2023-04-11T07:14:04.455Z,56.03
2023-04-11T07:15:04.478Z,53.24
2023-04-11T07:16:04.504Z,53.75
2023-04-11T07:17:04.408Z,52.99
2023-04-11T07:18:04.460Z,54.57
2023-04-11T07:19:04.411Z,58.20
2023-04-11T07:20:04.399Z,54.23
2023-04-11T07:21:04.379Z,57.48
2023-04-11T07:22:04.353Z,54.32
2023-04-11T07:23:04.437Z,55.90
2023-04-11T07:24:04.367Z,58.05
2023-04-11T07:25:04.386Z,57.13
2023-04-11T07:26:04.371Z,53.76
2023-04-11T07:27:04.353Z,54.23
2023-04-11T07:28:04.341Z,55.92
2023-04-11T07:29:04.329Z,56.72
2023-04-11T07:30:04.290Z,55.40
2023-04-11T07:31:04.344Z,57.69
2023-04-11T07:32:04.424Z,56.41
2023-04-11T07:33:06.029Z,55.48
2023-04-11T07:34:04.276Z,55.86
2023-04-11T07:35:04.272Z,55.22
2023-04-11T07:36:04.267Z,55.48
2023-04-11T07:37:04.283Z,55.20
2023-04-11T07:38:04.259Z,54.40
2023-04-11T07:39:04.218Z,53.00
2023-04-11T07:40:04.204Z,56.33
2023-04-11T07:41:04.189Z,55.42
2023-04-11T07:42:04.146Z,55.59
2023-04-11T07:43:04.207Z,56.25
2023-04-11T07:44:04.163Z,57.29
2023-04-11T07:45:04.168Z,55.64
2023-04-11T07:46:04.252Z,60.09
2023-04-11T07:47:04.111Z,55.10
2023-04-11T07:48:04.189Z,56.41
2023-04-11T07:49:04.186Z,55.45
2023-04-11T07:50:04.125Z,58.99
2023-04-11T07:51:04.121Z,61.05
2023-04-11T07:52:04.078Z,60.35
2023-04-11T07:53:04.066Z,64.56
2023-04-11T07:54:04.058Z,60.16
2023-04-11T07:55:04.156Z,59.16
2023-04-11T07:56:04.052Z,60.18
2023-04-11T07:57:04.050Z,57.43
2023-04-11T07:58:04.040Z,56.35
2023-04-11T07:59:04.028Z,56.88
2023-04-11T08:00:04.025Z,56.00
2023-04-11T08:01:04.004Z,57.25
2023-04-11T08:02:04.069Z,59.56
2023-04-11T08:03:04.186Z,56.50
2023-04-11T08:04:04.420Z,60.34
2023-04-11T08:05:04.177Z,60.87
2023-04-11T08:06:03.958Z,58.98
2023-04-11T08:07:03.957Z,61.06
2023-04-11T08:08:04.008Z,63.91
2023-04-11T08:09:03.933Z,61.77
2023-04-11T08:10:03.912Z,62.25
2023-04-11T08:11:03.942Z,61.14
2023-04-11T08:12:03.914Z,60.26
2023-04-11T08:13:03.871Z,60.92
2023-04-11T08:14:03.890Z,59.33
2023-04-11T08:15:03.858Z,57.07
2023-04-11T08:16:03.911Z,57.41
2023-04-11T08:17:05.465Z,57.47
2023-04-11T08:18:04.890Z,58.14
2023-04-11T08:19:03.837Z,58.45
2023-04-11T08:20:03.810Z,57.96
2023-04-11T08:21:03.825Z,58.88
2023-04-11T08:22:03.877Z,64.15
2023-04-11T08:23:05.462Z,60.53
2023-04-11T08:24:03.786Z,62.93
2023-04-11T08:25:03.764Z,60.37
2023-04-11T08:26:03.748Z,61.07
2023-04-11T08:27:03.793Z,58.57
2023-04-11T08:28:03.715Z,60.80
2023-04-11T08:29:03.745Z,58.71
2023-04-11T08:30:03.731Z,61.89
2023-04-11T08:31:03.835Z,61.66
2023-04-11T08:32:03.726Z,61.04
2023-04-11T08:33:35.618Z,61.91
2023-04-11T08:34:06.195Z,63.51
2023-04-11T08:35:03.692Z,60.58
2023-04-11T08:36:03.687Z,59.88
2023-04-11T08:37:03.640Z,59.88
2023-04-11T08:38:03.622Z,59.73
2023-04-11T08:39:03.623Z,59.58
2023-04-11T08:40:03.624Z,59.27
2023-04-11T08:41:03.610Z,59.65
2023-04-11T08:42:03.587Z,58.28
2023-04-11T08:43:03.576Z,57.81
2023-04-11T08:44:03.571Z,58.45
2023-04-11T08:45:03.579Z,57.78
2023-04-11T08:46:03.677Z,59.65
2023-04-11T08:47:03.556Z,59.07
2023-04-11T08:48:03.599Z,58.43
2023-04-11T08:49:03.544Z,56.17
2023-04-11T08:50:03.544Z,55.37
2023-04-11T08:51:03.499Z,54.66
2023-04-11T08:52:03.490Z,55.01
2023-04-11T08:53:03.464Z,54.93
2023-04-11T08:54:03.502Z,57.25
2023-04-11T08:55:03.459Z,53.72
2023-04-11T08:56:03.424Z,55.00
2023-04-11T08:57:03.471Z,54.00
2023-04-11T08:58:03.493Z,62.83
2023-04-11T08:59:03.414Z,56.93
2023-04-11T09:00:03.471Z,59.62
2023-04-11T09:01:03.428Z,66.63
2023-04-11T09:02:03.466Z,60.56
2023-04-11T09:03:03.574Z,59.25
2023-04-11T09:04:03.389Z,58.30
2023-04-11T09:05:03.415Z,59.35
2023-04-11T09:06:03.362Z,57.92
2023-04-11T09:07:03.383Z,58.79
2023-04-11T09:08:03.391Z,56.67
2023-04-11T09:09:03.372Z,57.48
2023-04-11T09:10:03.304Z,59.56
2023-04-11T09:11:03.293Z,57.18
2023-04-11T09:12:03.277Z,57.09
2023-04-11T09:13:03.348Z,58.09
2023-04-11T09:14:03.304Z,57.81
2023-04-11T09:15:03.279Z,58.25
2023-04-11T09:16:03.332Z,58.83
2023-04-11T09:17:03.329Z,58.75
2023-04-11T09:18:03.312Z,60.04
2023-04-11T09:19:03.238Z,56.36
2023-04-11T09:20:03.284Z,58.35
2023-04-11T09:21:03.208Z,61.05
2023-04-11T09:22:03.198Z,59.00
2023-04-11T09:23:03.180Z,58.70
2023-04-11T09:24:03.165Z,58.98
2023-04-11T09:25:03.198Z,59.87
2023-04-11T09:26:03.174Z,58.51
2023-04-11T09:27:03.159Z,59.47
2023-04-11T09:28:03.121Z,59.44
2023-04-11T09:29:03.126Z,59.27
2023-04-11T09:30:03.163Z,58.84
2023-04-11T09:31:03.133Z,58.58
2023-04-11T09:32:03.113Z,59.60
2023-04-11T09:33:03.157Z,58.18
2023-04-11T09:34:03.112Z,59.28
2023-04-11T09:35:03.085Z,57.11
2023-04-11T09:36:03.098Z,56.75
2023-04-11T09:37:03.028Z,56.16
2023-04-11T09:38:03.038Z,71.49
2023-04-11T09:39:03.049Z,62.34
2023-04-11T09:40:04.541Z,62.02
2023-04-11T09:41:03.027Z,58.79
2023-04-11T09:42:03.030Z,60.88
2023-04-11T09:43:02.992Z,58.04
2023-04-11T09:44:02.969Z,60.44
2023-04-11T09:45:03.044Z,62.40
2023-04-11T09:46:02.987Z,60.74
2023-04-11T09:47:03.040Z,62.62
2023-04-11T09:48:03.030Z,59.90
2023-04-11T09:49:03.397Z,66.51
2023-04-11T09:50:02.917Z,59.83
2023-04-11T09:51:02.943Z,58.97
2023-04-11T09:52:02.920Z,58.66
2023-04-11T09:53:02.891Z,60.28
2023-04-11T09:54:02.874Z,60.50
2023-04-11T09:55:02.891Z,57.47
2023-04-11T09:56:02.898Z,59.61
2023-04-11T09:57:02.871Z,60.84
2023-04-11T09:58:02.851Z,60.56
2023-04-11T09:59:02.858Z,59.57
2023-04-11T10:00:02.828Z,59.25
2023-04-11T10:01:02.808Z,58.43
2023-04-11T10:02:02.896Z,59.56
2023-04-11T10:03:03.075Z,60.64
2023-04-11T10:04:02.777Z,59.29
2023-04-11T10:05:02.790Z,54.98
2023-04-11T10:06:02.774Z,54.25
2023-04-11T10:07:02.780Z,56.66
2023-04-11T10:08:02.828Z,54.96
2023-04-11T10:09:02.709Z,56.07
2023-04-11T10:10:02.765Z,57.25
2023-04-11T10:11:02.683Z,55.03
2023-04-11T10:12:02.711Z,55.23
2023-04-11T10:13:02.678Z,56.32
2023-04-11T10:14:02.692Z,58.35
2023-04-11T10:15:02.714Z,55.45
2023-04-11T10:16:02.752Z,58.85
2023-04-11T10:17:02.636Z,58.40
2023-04-11T10:18:02.653Z,55.99
2023-04-11T10:19:02.635Z,59.47
2023-04-11T10:20:02.621Z,57.20
2023-04-11T10:21:02.631Z,57.69
2023-04-11T10:22:02.588Z,56.49
2023-04-11T10:23:02.659Z,55.56
2023-04-11T10:24:02.596Z,58.54
2023-04-11T10:25:02.580Z,55.79
2023-04-11T10:26:02.560Z,55.43
2023-04-11T10:27:02.542Z,55.51
2023-04-11T10:28:02.512Z,55.90
2023-04-11T10:29:02.518Z,63.40
2023-04-11T10:30:02.532Z,56.35
2023-04-11T10:31:02.533Z,56.06
2023-04-11T10:32:02.550Z,58.43
2023-04-11T10:33:02.500Z,58.73
2023-04-11T10:34:02.505Z,58.34
2023-04-11T10:35:02.452Z,57.67
2023-04-11T10:36:02.521Z,63.32
2023-04-11T10:37:02.453Z,64.73
2023-04-11T10:38:02.446Z,59.11
2023-04-11T10:39:02.433Z,59.35
2023-04-11T10:40:02.420Z,60.18
2023-04-11T10:41:03.450Z,61.05
2023-04-11T10:42:02.450Z,59.88
2023-04-11T10:43:02.400Z,58.87
2023-04-11T10:44:02.368Z,60.00
2023-04-11T10:45:02.380Z,59.15
2023-04-11T10:46:02.396Z,58.82
2023-04-11T10:47:02.399Z,60.74
2023-04-11T10:48:02.387Z,60.12
2023-04-11T10:49:02.305Z,60.47
2023-04-11T10:50:02.375Z,56.71
2023-04-11T10:51:02.304Z,58.24
2023-04-11T10:52:02.318Z,58.64
2023-04-11T10:53:02.308Z,58.12
2023-04-11T10:54:02.928Z,56.91
2023-04-11T10:55:02.265Z,59.39
2023-04-11T10:56:02.315Z,58.09
2023-04-11T10:57:02.254Z,59.73
2023-04-11T10:58:02.233Z,59.79
2023-04-11T10:59:02.221Z,60.26
2023-04-11T11:00:02.233Z,56.79
2023-04-11T11:01:02.237Z,56.81
2023-04-11T11:02:02.426Z,55.91
2023-04-11T11:03:02.311Z,55.83
2023-04-11T11:04:02.407Z,59.51
2023-04-11T11:05:02.228Z,57.98
2023-04-11T11:06:02.166Z,59.79
2023-04-11T11:07:02.175Z,55.80
2023-04-11T11:08:02.179Z,54.57
2023-04-11T11:09:02.108Z,54.90
2023-04-11T11:10:02.110Z,55.66
2023-04-11T11:11:02.127Z,55.54
2023-04-11T11:12:02.073Z,55.18
2023-04-11T11:13:02.105Z,55.90
2023-04-11T11:14:02.104Z,59.53
2023-04-11T11:15:02.087Z,56.95
2023-04-11T11:16:02.116Z,57.39
2023-04-11T11:17:02.110Z,54.80
2023-04-11T11:18:02.104Z,54.54
2023-04-11T11:19:02.021Z,56.16
2023-04-11T11:20:02.040Z,55.33
2023-04-11T11:21:02.074Z,56.79
2023-04-11T11:22:01.992Z,56.21
2023-04-11T11:23:02.010Z,56.67
2023-04-11T11:24:01.995Z,55.43
2023-04-11T11:25:01.981Z,55.13
2023-04-11T11:26:01.988Z,55.23
2023-04-11T11:27:01.966Z,55.14
2023-04-11T11:28:01.940Z,54.86
2023-04-11T11:29:01.931Z,56.26
2023-04-11T11:30:01.895Z,54.88
2023-04-11T11:31:01.913Z,56.07
2023-04-11T11:32:01.919Z,55.91
2023-04-11T11:33:01.939Z,54.00
2023-04-11T11:34:21.356Z,52.62
2023-04-11T11:35:03.863Z,54.68
2023-04-11T11:36:01.877Z,56.34
2023-04-11T11:37:01.943Z,55.43
2023-04-11T11:38:01.822Z,55.11
2023-04-11T11:39:01.837Z,58.07
2023-04-11T11:40:01.857Z,59.08
2023-04-11T11:41:01.801Z,58.15
2023-04-11T11:42:01.800Z,59.62
2023-04-11T11:43:01.808Z,57.36
2023-04-11T11:44:01.817Z,57.53
2023-04-11T11:45:01.777Z,59.10
2023-04-11T11:46:01.915Z,55.97
2023-04-11T11:47:01.822Z,53.26
2023-04-11T11:48:01.779Z,56.61
2023-04-11T11:49:01.849Z,55.13
2023-04-11T11:50:01.771Z,55.06
2023-04-11T11:51:01.781Z,58.71
2023-04-11T11:52:01.716Z,57.16
2023-04-11T11:53:01.753Z,55.25
2023-04-11T11:54:01.698Z,54.67
2023-04-11T11:55:01.652Z,55.87
2023-04-11T11:56:01.680Z,58.18
2023-04-11T11:57:01.676Z,58.78
2023-04-11T11:58:01.700Z,59.09
2023-04-11T11:59:01.662Z,57.87
2023-04-11T12:00:01.618Z,57.42
2023-04-11T12:01:01.664Z,57.26
2023-04-11T12:02:01.666Z,55.11
2023-04-11T12:03:01.728Z,60.29
2023-04-11T12:04:01.925Z,55.32
2023-04-11T12:05:01.665Z,56.39
2023-04-11T12:06:01.576Z,55.39
2023-04-11T12:07:01.651Z,63.47
2023-04-11T12:08:01.565Z,56.55
2023-04-11T12:09:01.519Z,56.66
2023-04-11T12:10:01.540Z,55.75
2023-04-11T12:11:01.505Z,55.94
2023-04-11T12:12:01.497Z,56.04
2023-04-11T12:13:01.512Z,58.21
2023-04-11T12:14:01.462Z,55.18
2023-04-11T12:15:01.463Z,59.08
2023-04-11T12:16:01.545Z,56.86
2023-04-11T12:17:01.478Z,58.67
2023-04-11T12:18:01.520Z,57.25
2023-04-11T12:19:01.459Z,57.15
2023-04-11T12:20:01.450Z,56.70
2023-04-11T12:21:01.437Z,60.87
2023-04-11T12:22:01.413Z,58.94
2023-04-11T12:23:01.409Z,56.70
2023-04-11T12:24:01.409Z,60.99
2023-04-11T12:25:01.403Z,58.43
2023-04-11T12:26:01.353Z,57.89
2023-04-11T12:27:06.939Z,56.26
2023-04-11T12:28:03.335Z,64.91
2023-04-11T12:29:01.348Z,56.62
2023-04-11T12:30:01.356Z,55.89
2023-04-11T12:31:01.375Z,53.93
2023-04-11T12:32:01.341Z,54.37
2023-04-11T12:33:01.399Z,55.47
2023-04-11T12:34:01.287Z,55.98
2023-04-11T12:35:01.304Z,53.38
2023-04-11T12:36:01.294Z,54.69
2023-04-11T12:37:01.248Z,55.12
2023-04-11T12:38:01.286Z,55.72
2023-04-11T12:39:01.269Z,54.97
2023-04-11T12:40:01.332Z,54.38
2023-04-11T12:41:29.694Z,55.33
2023-04-11T12:42:03.259Z,54.81
2023-04-11T12:43:01.218Z,54.13
2023-04-11T12:44:01.201Z,57.39
2023-04-11T12:45:01.195Z,53.93
2023-04-11T12:46:01.222Z,56.96
2023-04-11T12:47:01.227Z,53.07
2023-04-11T12:48:01.189Z,53.63
2023-04-11T12:49:01.151Z,53.48
2023-04-11T12:50:01.125Z,52.64
2023-04-11T12:51:01.171Z,57.81
2023-04-11T12:52:01.094Z,55.26